METAR Data
IDs: Format: Raw Decoded Include TAF

Data at: 1825 UTC 26 Sep 2021

UUOL 261800Z 30006MPS 9999 BKN023CB 09/08 Q1008 R15/290150 NOSIG